createdAt,value
2019-02-06T00:00:47.067Z,94.20
2019-02-06T00:03:21.246Z,94.10
2019-02-06T00:05:51.651Z,94.10
2019-02-06T00:08:22.156Z,94.00
2019-02-06T00:10:52.565Z,94.00
2019-02-06T00:13:23.032Z,94.00
2019-02-06T00:15:53.626Z,94.00
2019-02-06T00:18:24.226Z,94.10
2019-02-06T00:20:54.582Z,94.10
2019-02-06T00:23:25.039Z,94.10
2019-02-06T00:25:55.529Z,94.10
2019-02-06T00:28:25.800Z,94.00
2019-02-06T00:30:56.129Z,94.10
2019-02-06T00:33:26.430Z,94.20
2019-02-06T00:35:56.756Z,94.30
2019-02-06T00:38:27.116Z,94.30
2019-02-06T00:40:57.452Z,94.30
2019-02-06T00:43:28.322Z,94.40
2019-02-06T00:45:59.088Z,94.40
2019-02-06T00:48:29.585Z,94.30
2019-02-06T00:50:59.852Z,94.20
2019-02-06T00:53:30.204Z,94.30
2019-02-06T00:56:00.491Z,94.60
2019-02-06T00:58:30.974Z,94.30
2019-02-06T01:01:01.243Z,94.70
2019-02-06T01:03:31.581Z,94.30
2019-02-06T01:06:02.183Z,94.20
2019-02-06T01:08:32.507Z,94.10
2019-02-06T01:11:03.514Z,94.10
2019-02-06T01:13:33.853Z,94.20
2019-02-06T01:16:04.468Z,94.40
2019-02-06T01:18:34.832Z,94.40
2019-02-06T01:21:05.181Z,94.50
2019-02-06T01:23:35.724Z,94.80
2019-02-06T01:26:06.404Z,94.50
2019-02-06T01:28:36.776Z,94.50
2019-02-06T01:31:15.561Z,94.60
2019-02-06T01:33:47.080Z,94.70
2019-02-06T01:36:19.194Z,94.70
2019-02-06T01:38:49.552Z,94.70
2019-02-06T01:41:19.836Z,94.70
2019-02-06T01:43:50.269Z,94.70
2019-02-06T01:46:20.692Z,94.80
2019-02-06T01:48:51.232Z,94.80
2019-02-06T01:51:21.964Z,94.80
2019-02-06T01:53:52.403Z,94.80
2019-02-06T01:56:22.662Z,94.90
2019-02-06T01:58:53.011Z,94.90
2019-02-06T02:01:23.321Z,94.90
2019-02-06T02:03:53.662Z,94.90
2019-02-06T02:06:24.512Z,94.80
2019-02-06T02:09:01.903Z,94.80
2019-02-06T02:11:33.051Z,94.80
2019-02-06T02:14:03.326Z,94.70
2019-02-06T02:16:33.558Z,94.70
2019-02-06T02:19:04.322Z,94.80
2019-02-06T02:21:34.576Z,94.70
2019-02-06T02:24:04.875Z,94.70
2019-02-06T02:26:35.307Z,94.80
2019-02-06T02:29:05.729Z,94.70
2019-02-06T02:31:36.158Z,94.70
2019-02-06T02:34:06.697Z,94.60
2019-02-06T02:36:37.224Z,94.60
2019-02-06T02:39:08.171Z,94.60
2019-02-06T02:41:38.584Z,94.40
2019-02-06T02:44:08.981Z,94.50
2019-02-06T02:46:39.686Z,94.50
2019-02-06T02:49:10.046Z,94.50
2019-02-06T02:51:44.055Z,94.50
2019-02-06T02:54:12.756Z,94.40
2019-02-06T02:56:43.234Z,94.40
2019-02-06T02:59:13.781Z,94.30
2019-02-06T03:01:54.325Z,94.10
2019-02-06T03:04:33.823Z,94.00
2019-02-06T03:07:04.050Z,94.10
2019-02-06T03:09:34.423Z,94.20
2019-02-06T03:12:04.715Z,94.30
2019-02-06T03:14:34.998Z,94.30
2019-02-06T03:17:05.538Z,94.20
2019-02-06T03:19:35.866Z,94.10
2019-02-06T03:22:06.505Z,94.00
2019-02-06T03:24:38.253Z,94.00
2019-02-06T03:27:08.701Z,94.10
2019-02-06T03:29:39.109Z,94.10
2019-02-06T03:32:09.434Z,94.10
2019-02-06T03:34:39.887Z,94.00
2019-02-06T03:37:10.206Z,94.10
2019-02-06T03:39:40.546Z,94.20
2019-02-06T03:42:10.922Z,94.10
2019-02-06T03:44:41.347Z,94.00
2019-02-06T03:47:11.683Z,94.10
2019-02-06T03:49:42.765Z,94.20
2019-02-06T03:52:13.564Z,94.20
2019-02-06T03:54:43.900Z,94.20
2019-02-06T03:57:14.425Z,94.40
2019-02-06T03:59:44.727Z,94.10
2019-02-06T04:02:15.069Z,94.10
2019-02-06T04:04:45.488Z,94.10
2019-02-06T04:07:15.970Z,94.10
2019-02-06T04:09:46.553Z,94.10
2019-02-06T04:12:16.974Z,94.00
2019-02-06T04:14:47.314Z,94.00
2019-02-06T04:17:17.726Z,94.10
2019-02-06T04:19:48.257Z,94.20
2019-02-06T04:22:18.638Z,94.10
2019-02-06T04:24:51.533Z,94.20
2019-02-06T04:27:20.963Z,94.20
2019-02-06T04:29:51.213Z,94.10
2019-02-06T04:32:23.489Z,94.10
2019-02-06T04:34:53.795Z,94.10
2019-02-06T04:37:24.205Z,94.10
2019-02-06T04:39:54.962Z,94.20
2019-02-06T04:42:25.352Z,94.10
2019-02-06T04:44:55.897Z,94.00
2019-02-06T04:47:26.630Z,94.00
2019-02-06T04:49:57.171Z,93.90
2019-02-06T04:52:28.526Z,94.00
2019-02-06T04:54:58.836Z,94.00
2019-02-06T04:57:29.494Z,94.20
2019-02-06T04:59:59.793Z,94.10
2019-02-06T05:02:30.119Z,94.30
2019-02-06T05:05:00.534Z,94.20
2019-02-06T05:07:31.906Z,94.20
2019-02-06T05:10:02.272Z,94.20
2019-02-06T05:12:32.713Z,94.20
2019-02-06T05:15:03.491Z,94.20
2019-02-06T05:17:33.867Z,94.30
2019-02-06T05:20:09.877Z,94.30
2019-02-06T05:22:40.392Z,94.30
2019-02-06T05:25:10.714Z,94.20
2019-02-06T05:27:41.283Z,94.20
2019-02-06T05:30:12.021Z,94.10
2019-02-06T05:32:42.927Z,94.20
2019-02-06T05:35:13.785Z,94.20
2019-02-06T05:37:44.218Z,94.60
2019-02-06T05:40:14.706Z,94.10
2019-02-06T05:42:45.575Z,94.10
2019-02-06T05:45:16.086Z,94.10
2019-02-06T05:47:46.437Z,94.10
2019-02-06T05:50:17.146Z,94.00
2019-02-06T05:52:47.643Z,94.00
2019-02-06T05:55:18.074Z,94.10
2019-02-06T05:57:49.021Z,94.10
2019-02-06T06:00:23.881Z,94.10
2019-02-06T06:02:54.360Z,94.00
2019-02-06T06:05:24.799Z,94.00
2019-02-06T06:07:55.166Z,94.00
2019-02-06T06:10:26.055Z,94.10
2019-02-06T06:12:56.453Z,94.10
2019-02-06T06:15:27.804Z,94.20
2019-02-06T06:17:58.233Z,94.10
2019-02-06T06:20:28.712Z,94.00
2019-02-06T06:22:59.066Z,94.10
2019-02-06T06:25:29.810Z,94.10
2019-02-06T06:28:00.712Z,94.10
2019-02-06T06:30:31.204Z,94.00
2019-02-06T06:33:01.589Z,94.10
2019-02-06T06:35:32.082Z,94.10
2019-02-06T06:38:03.013Z,94.10
2019-02-06T06:40:33.529Z,94.10
2019-02-06T06:43:03.852Z,94.00
2019-02-06T06:45:34.342Z,94.00
2019-02-06T06:48:04.704Z,94.00
2019-02-06T06:50:35.220Z,94.00
2019-02-06T06:53:05.941Z,94.00
2019-02-06T06:55:36.332Z,94.00
2019-02-06T06:58:06.880Z,94.00
2019-02-06T07:00:37.275Z,93.80
2019-02-06T07:03:07.664Z,93.80
2019-02-06T07:05:38.664Z,93.70
2019-02-06T07:08:13.252Z,93.80
2019-02-06T07:10:41.208Z,93.60
2019-02-06T07:13:13.481Z,93.60
2019-02-06T07:15:43.927Z,93.40
2019-02-06T07:18:14.388Z,93.40
2019-02-06T07:20:45.086Z,93.20
2019-02-06T07:23:15.536Z,93.30
2019-02-06T07:25:45.934Z,93.10
2019-02-06T07:28:16.261Z,92.80
2019-02-06T07:30:46.500Z,92.60
2019-02-06T07:33:17.855Z,92.20
2019-02-06T07:35:48.322Z,92.40
2019-02-06T07:38:24.481Z,92.30
2019-02-06T07:40:50.738Z,92.20
2019-02-06T07:43:21.144Z,92.00
2019-02-06T07:45:51.727Z,91.90
2019-02-06T07:48:22.482Z,91.70
2019-02-06T07:50:52.936Z,91.40
2019-02-06T07:53:23.253Z,91.50
2019-02-06T07:55:53.618Z,91.10
2019-02-06T07:58:24.036Z,90.90
2019-02-06T08:00:54.572Z,91.00
2019-02-06T08:03:24.894Z,90.80
2019-02-06T08:05:55.285Z,90.50
2019-02-06T08:08:35.624Z,90.30
2019-02-06T08:10:57.664Z,90.00
2019-02-06T08:13:28.063Z,90.00
2019-02-06T08:15:59.024Z,90.10
2019-02-06T08:18:30.419Z,89.60
2019-02-06T08:21:00.810Z,89.30
2019-02-06T08:23:31.357Z,88.90
2019-02-06T08:26:01.920Z,88.80
2019-02-06T08:28:32.427Z,88.70
2019-02-06T08:31:02.891Z,88.70
2019-02-06T08:33:33.266Z,88.40
2019-02-06T08:36:04.183Z,87.80
2019-02-06T08:38:34.645Z,88.50
2019-02-06T08:41:05.572Z,88.10
2019-02-06T08:43:36.363Z,87.90
2019-02-06T08:46:06.802Z,87.60
2019-02-06T08:48:37.343Z,86.80
2019-02-06T08:51:07.836Z,86.80
2019-02-06T08:53:38.186Z,86.50
2019-02-06T08:56:08.693Z,86.40
2019-02-06T08:58:39.143Z,85.80
2019-02-06T09:01:09.662Z,85.70
2019-02-06T09:03:40.135Z,85.40
2019-02-06T09:06:10.583Z,85.60
2019-02-06T09:08:41.083Z,85.30
2019-02-06T09:11:11.522Z,85.20
2019-02-06T09:13:41.994Z,85.60
2019-02-06T09:16:12.407Z,85.70
2019-02-06T09:18:42.879Z,86.20
2019-02-06T09:21:13.325Z,85.50
2019-02-06T09:23:43.772Z,85.60
2019-02-06T09:26:14.400Z,85.90
2019-02-06T09:28:44.885Z,86.60
2019-02-06T09:31:15.363Z,86.10
2019-02-06T09:33:45.827Z,85.10
2019-02-06T09:36:16.253Z,85.80
2019-02-06T09:38:46.768Z,85.70
2019-02-06T09:41:17.283Z,85.70
2019-02-06T09:43:47.741Z,85.50
2019-02-06T09:46:18.207Z,84.90
2019-02-06T09:48:48.741Z,84.60
2019-02-06T09:51:19.432Z,84.40
2019-02-06T09:53:50.344Z,83.90
2019-02-06T09:56:20.780Z,83.50
2019-02-06T09:58:51.483Z,82.90
2019-02-06T10:01:21.895Z,82.50
2019-02-06T10:03:52.353Z,82.70
2019-02-06T10:06:22.794Z,82.40
2019-02-06T10:08:53.375Z,82.50
2019-02-06T10:11:23.695Z,82.10
2019-02-06T10:13:54.136Z,82.70
2019-02-06T10:16:24.557Z,81.80
2019-02-06T10:18:54.926Z,82.00
2019-02-06T10:21:25.343Z,81.30
2019-02-06T10:23:55.693Z,80.80
2019-02-06T10:26:26.184Z,80.30
2019-02-06T10:28:56.541Z,80.50
2019-02-06T10:31:27.102Z,80.00
2019-02-06T10:33:57.456Z,80.40
2019-02-06T10:36:28.304Z,80.20
2019-02-06T10:38:58.703Z,80.80
2019-02-06T10:41:29.253Z,81.70
2019-02-06T10:43:59.572Z,80.80
2019-02-06T10:46:29.879Z,80.70
2019-02-06T10:49:00.249Z,81.80
2019-02-06T10:51:30.686Z,80.50
2019-02-06T10:54:01.202Z,81.10
2019-02-06T10:56:31.543Z,81.30
2019-02-06T10:59:01.935Z,81.10
2019-02-06T11:01:32.353Z,81.30
2019-02-06T11:04:03.169Z,80.20
2019-02-06T11:06:33.669Z,80.50
2019-02-06T11:09:05.531Z,79.30
2019-02-06T11:11:35.906Z,79.10
2019-02-06T11:14:06.479Z,78.50
2019-02-06T11:16:36.853Z,78.40
2019-02-06T11:19:07.495Z,77.60
2019-02-06T11:21:38.027Z,77.60
2019-02-06T11:24:08.677Z,76.40
2019-02-06T11:26:39.553Z,77.50
2019-02-06T11:29:09.953Z,77.30
2019-02-06T11:31:40.787Z,77.80
2019-02-06T11:34:11.190Z,78.60
2019-02-06T11:36:41.618Z,78.70
2019-02-06T11:39:18.566Z,78.60
2019-02-06T11:41:49.029Z,78.20
2019-02-06T11:44:19.803Z,78.20
2019-02-06T11:46:50.367Z,79.30
2019-02-06T11:49:25.277Z,78.70
2019-02-06T11:51:55.690Z,78.90
2019-02-06T11:54:26.168Z,78.70
2019-02-06T11:56:56.958Z,78.80
2019-02-06T11:59:27.454Z,79.00
2019-02-06T12:01:58.005Z,79.50
2019-02-06T12:04:28.483Z,80.40
2019-02-06T12:06:58.901Z,79.70
2019-02-06T12:09:29.300Z,79.50
2019-02-06T12:12:00.174Z,80.60
2019-02-06T12:14:30.622Z,80.20
2019-02-06T12:17:01.070Z,80.60
2019-02-06T12:19:31.538Z,80.40
2019-02-06T12:22:01.907Z,81.00
2019-02-06T12:24:32.361Z,80.80
2019-02-06T12:27:02.797Z,80.60
2019-02-06T12:29:33.300Z,80.40
2019-02-06T12:32:03.822Z,79.40
2019-02-06T12:34:34.339Z,79.40
2019-02-06T12:37:05.335Z,78.50
2019-02-06T12:39:35.857Z,78.50
2019-02-06T12:42:06.335Z,78.00
2019-02-06T12:44:36.843Z,77.80
2019-02-06T12:47:07.221Z,78.50
2019-02-06T12:49:37.539Z,78.70
2019-02-06T12:52:07.999Z,78.70
2019-02-06T12:54:38.464Z,79.10
2019-02-06T12:57:09.027Z,79.20
2019-02-06T12:59:39.396Z,79.20
2019-02-06T13:02:09.908Z,79.80
2019-02-06T13:04:40.160Z,80.10
2019-02-06T13:07:10.534Z,80.70
2019-02-06T13:09:40.976Z,80.00
2019-02-06T13:12:11.532Z,80.10
2019-02-06T13:14:41.905Z,80.40
2019-02-06T13:17:12.367Z,80.40
2019-02-06T13:19:42.818Z,80.20
2019-02-06T13:22:13.214Z,80.00
2019-02-06T13:24:43.642Z,80.10
2019-02-06T13:27:14.103Z,79.70
2019-02-06T13:29:44.521Z,79.70
2019-02-06T13:32:14.890Z,79.90
2019-02-06T13:34:45.313Z,79.30
2019-02-06T13:37:15.786Z,80.00
2019-02-06T13:39:46.215Z,78.80
2019-02-06T13:42:16.625Z,78.00
2019-02-06T13:44:47.045Z,78.20
2019-02-06T13:47:17.502Z,77.80
2019-02-06T13:49:48.110Z,77.70
2019-02-06T13:52:18.750Z,78.60
2019-02-06T13:54:49.095Z,78.40
2019-02-06T13:57:19.502Z,77.70
2019-02-06T13:59:49.948Z,76.40
2019-02-06T14:02:21.611Z,76.80
2019-02-06T14:04:52.193Z,77.80
2019-02-06T14:07:22.851Z,78.80
2019-02-06T14:09:53.332Z,79.30
2019-02-06T14:12:24.830Z,79.50
2019-02-06T14:14:55.982Z,80.00
2019-02-06T14:17:26.459Z,79.40
2019-02-06T14:19:57.364Z,79.30
2019-02-06T14:22:28.271Z,79.20
2019-02-06T14:25:12.994Z,78.50
2019-02-06T14:28:14.656Z,79.10
2019-02-06T14:31:00.335Z,79.20
2019-02-06T14:33:58.429Z,79.10
2019-02-06T14:37:07.606Z,79.50
2019-02-06T14:39:51.043Z,80.90
2019-02-06T14:43:01.144Z,80.30
2019-02-06T14:45:50.678Z,80.00
2019-02-06T14:48:59.763Z,80.10
2019-02-06T14:52:01.750Z,80.60
2019-02-06T14:54:51.259Z,81.70
2019-02-06T14:57:54.522Z,82.40
2019-02-06T15:01:00.018Z,82.50
2019-02-06T15:03:54.666Z,82.10
2019-02-06T15:07:03.759Z,81.30
2019-02-06T15:10:07.109Z,81.10
2019-02-06T15:13:08.865Z,80.20
2019-02-06T15:16:11.389Z,80.20
2019-02-06T15:19:20.634Z,80.60
2019-02-06T15:22:18.596Z,80.90
2019-02-06T15:24:59.130Z,81.20
2019-02-06T15:28:00.632Z,81.60
2019-02-06T15:31:09.693Z,82.70
2019-02-06T15:34:06.806Z,83.80
2019-02-06T15:36:56.052Z,85.00
2019-02-06T15:40:00.521Z,86.50
2019-02-06T15:42:45.146Z,87.10
2019-02-06T15:45:38.766Z,87.70
2019-02-06T15:48:33.863Z,88.00
2019-02-06T15:51:43.025Z,89.10
2019-02-06T15:54:45.697Z,88.70
2019-02-06T15:57:41.242Z,89.40
2019-02-06T16:00:50.342Z,88.60
2019-02-06T16:04:14.048Z,88.20
2019-02-06T16:07:23.152Z,88.00
2019-02-06T16:10:24.014Z,87.80
2019-02-06T16:13:14.953Z,87.90
2019-02-06T16:16:12.521Z,88.20
2019-02-06T16:18:55.446Z,88.40
2019-02-06T16:21:52.646Z,88.20
2019-02-06T16:24:44.564Z,88.50
2019-02-06T16:27:53.686Z,88.80
2019-02-06T16:31:02.919Z,89.10
2019-02-06T16:33:59.504Z,90.10
2019-02-06T16:36:55.326Z,90.70
2019-02-06T16:39:47.714Z,90.50
2019-02-06T16:42:56.841Z,90.00
2019-02-06T16:45:51.382Z,89.60
2019-02-06T16:48:47.852Z,89.70
2019-02-06T16:51:35.503Z,89.20
2019-02-06T16:54:32.794Z,89.30
2019-02-06T16:57:36.362Z,87.90
2019-02-06T17:00:45.434Z,87.50
2019-02-06T17:03:54.454Z,86.80
2019-02-06T17:06:48.022Z,88.70
2019-02-06T17:09:37.903Z,88.50
2019-02-06T17:12:47.072Z,87.90
2019-02-06T17:15:48.514Z,88.40
2019-02-06T17:18:42.266Z,87.70
2019-02-06T17:21:30.111Z,88.10
2019-02-06T17:24:39.372Z,89.80
2019-02-06T17:27:37.533Z,89.30
2019-02-06T17:30:35.170Z,89.60
2019-02-06T17:33:47.049Z,89.70
2019-02-06T17:36:31.641Z,89.60
2019-02-06T17:39:24.522Z,90.00
2019-02-06T17:42:15.699Z,90.00
2019-02-06T17:45:17.745Z,90.00
2019-02-06T17:48:22.052Z,90.50
2019-02-06T17:51:34.105Z,90.90
2019-02-06T17:54:18.928Z,90.90
2019-02-06T17:56:49.388Z,91.20
2019-02-06T17:59:19.879Z,91.30
2019-02-06T18:01:53.413Z,91.30
2019-02-06T18:04:31.837Z,91.60
2019-02-06T18:07:02.172Z,91.90
2019-02-06T18:09:32.804Z,92.10
2019-02-06T18:12:03.429Z,92.00
2019-02-06T18:14:33.943Z,91.60
2019-02-06T18:17:04.897Z,91.40
2019-02-06T18:19:38.952Z,91.20
2019-02-06T18:22:09.907Z,91.10
2019-02-06T18:24:40.476Z,91.00
2019-02-06T18:27:11.342Z,91.00
2019-02-06T18:29:41.746Z,91.00
2019-02-06T18:32:13.351Z,91.20
2019-02-06T18:34:44.042Z,91.30
2019-02-06T18:37:14.461Z,91.50
2019-02-06T18:39:45.000Z,91.60
2019-02-06T18:42:15.603Z,91.50
2019-02-06T18:44:46.124Z,91.80
2019-02-06T18:47:17.792Z,91.80
2019-02-06T18:49:48.433Z,91.80
2019-02-06T18:52:20.388Z,91.70
2019-02-06T18:54:50.913Z,91.70
2019-02-06T18:57:21.296Z,91.80
2019-02-06T18:59:51.670Z,91.80
2019-02-06T19:02:22.186Z,91.90
2019-02-06T19:04:52.628Z,91.90
2019-02-06T19:07:23.758Z,92.00
2019-02-06T19:09:54.388Z,92.00
2019-02-06T19:12:24.802Z,92.10
2019-02-06T19:14:55.203Z,92.10
2019-02-06T19:17:25.891Z,92.20
2019-02-06T19:19:56.307Z,92.30
2019-02-06T19:22:27.268Z,92.40
2019-02-06T19:24:57.767Z,92.30
2019-02-06T19:27:28.291Z,92.30
2019-02-06T19:29:59.041Z,92.30
2019-02-06T19:32:29.562Z,92.40
2019-02-06T19:35:00.312Z,92.60
2019-02-06T19:37:31.357Z,92.80
2019-02-06T19:40:02.888Z,93.10
2019-02-06T19:42:33.486Z,93.70
2019-02-06T19:45:04.133Z,94.20
2019-02-06T19:47:37.879Z,94.50
2019-02-06T19:50:13.916Z,94.50
2019-02-06T19:52:44.658Z,94.50
2019-02-06T19:55:16.820Z,94.50
2019-02-06T19:57:47.379Z,94.70
2019-02-06T20:00:20.850Z,94.80
2019-02-06T20:02:51.388Z,94.90
2019-02-06T20:05:22.879Z,95.20
2019-02-06T20:07:53.563Z,95.50
2019-02-06T20:10:26.833Z,95.40
2019-02-06T20:12:57.368Z,95.30
2019-02-06T20:15:27.880Z,95.20
2019-02-06T20:17:58.335Z,95.10
2019-02-06T20:20:28.764Z,95.00
2019-02-06T20:22:59.124Z,95.00
2019-02-06T20:25:29.946Z,94.80
2019-02-06T20:28:00.581Z,95.00
2019-02-06T20:30:32.114Z,95.30
2019-02-06T20:33:03.055Z,95.30
2019-02-06T20:35:33.686Z,94.80
2019-02-06T20:38:04.213Z,95.30
2019-02-06T20:40:36.122Z,95.40
2019-02-06T20:43:06.478Z,95.20
2019-02-06T20:45:36.936Z,95.10
2019-02-06T20:48:07.291Z,95.20
2019-02-06T20:50:37.911Z,95.30
2019-02-06T20:53:08.413Z,95.50
2019-02-06T20:55:39.057Z,95.70
2019-02-06T20:58:09.726Z,95.80
2019-02-06T21:00:40.320Z,95.90
2019-02-06T21:03:10.754Z,96.40
2019-02-06T21:05:41.280Z,96.50
2019-02-06T21:08:11.745Z,96.50
2019-02-06T21:10:42.210Z,96.60
2019-02-06T21:13:13.056Z,96.60
2019-02-06T21:15:43.902Z,96.70
2019-02-06T21:18:14.431Z,96.80
2019-02-06T21:20:45.113Z,96.80
2019-02-06T21:23:15.729Z,96.80
2019-02-06T21:25:46.188Z,96.90
2019-02-06T21:28:16.653Z,97.30
2019-02-06T21:30:47.123Z,97.00
2019-02-06T21:33:17.673Z,97.00
2019-02-06T21:35:48.087Z,97.40
2019-02-06T21:38:18.383Z,97.30
2019-02-06T21:40:48.923Z,97.60
2019-02-06T21:43:19.283Z,97.80
2019-02-06T21:45:49.967Z,97.80
2019-02-06T21:48:22.444Z,97.90
2019-02-06T21:50:53.042Z,97.90
2019-02-06T21:53:23.667Z,97.80
2019-02-06T21:55:54.200Z,97.90
2019-02-06T21:58:24.739Z,97.90
2019-02-06T22:00:55.357Z,98.10
2019-02-06T22:03:25.783Z,98.30
2019-02-06T22:05:57.102Z,98.40
2019-02-06T22:08:27.622Z,98.40
2019-02-06T22:10:58.114Z,98.40
2019-02-06T22:13:28.519Z,98.50
2019-02-06T22:15:59.033Z,98.60
2019-02-06T22:18:29.464Z,98.70
2019-02-06T22:20:59.955Z,98.60
2019-02-06T22:23:30.519Z,98.70
2019-02-06T22:26:01.020Z,98.60
2019-02-06T22:28:31.789Z,98.60
2019-02-06T22:31:03.072Z,98.60
2019-02-06T22:33:34.347Z,98.70
2019-02-06T22:36:04.723Z,98.80
2019-02-06T22:38:35.128Z,99.20
2019-02-06T22:41:05.788Z,99.00
2019-02-06T22:43:36.294Z,98.90
2019-02-06T22:46:06.813Z,99.10
2019-02-06T22:48:37.261Z,99.00
2019-02-06T22:51:07.610Z,99.00
2019-02-06T22:53:38.033Z,99.00
2019-02-06T22:56:08.535Z,98.90
2019-02-06T22:58:39.049Z,98.70
2019-02-06T23:01:24.889Z,98.70
2019-02-06T23:03:55.580Z,98.70
2019-02-06T23:06:26.525Z,98.60
2019-02-06T23:08:56.934Z,98.50
2019-02-06T23:11:27.477Z,98.60
2019-02-06T23:13:57.882Z,98.50
2019-02-06T23:16:28.331Z,98.60
2019-02-06T23:18:58.681Z,98.70
2019-02-06T23:21:29.183Z,98.70
2019-02-06T23:23:59.712Z,98.80
2019-02-06T23:26:30.134Z,98.70
2019-02-06T23:29:00.446Z,98.70
2019-02-06T23:31:30.929Z,98.70
2019-02-06T23:34:01.419Z,98.60
2019-02-06T23:36:32.761Z,98.50
2019-02-06T23:39:03.891Z,98.40
2019-02-06T23:41:34.338Z,98.30
2019-02-06T23:44:04.734Z,98.10
2019-02-06T23:46:35.246Z,98.00
2019-02-06T23:49:05.921Z,97.70
2019-02-06T23:51:36.342Z,97.30
2019-02-06T23:54:06.658Z,97.10
2019-02-06T23:56:37.191Z,97.00
2019-02-06T23:59:07.626Z,96.90
